Fort Worth - NOAA's Hourly Summary for Monday, May 7, 2018
Hour Temp
(f)
RH
(%)
Solar Rad.
(MJ/m2)
Rainfall
(in)
Wind
(mph)
5/7/2018 12:00 AM 70 57 0 0 2.25
5/7/2018 1:00 AM 68 61 0 0 2.11
5/7/2018 2:00 AM 67 63 0 0 2.67
5/7/2018 3:00 AM 66 64 0 0 2.55
5/7/2018 4:00 AM 65 68 0 0 2.07
5/7/2018 5:00 AM 64 72 0 0 2.34
5/7/2018 6:00 AM 63 75 0.01 0 1.36
5/7/2018 7:00 AM 65 73 0.29 0 2.38
5/7/2018 8:00 AM 69 66 0.94 0 2.68
5/7/2018 9:00 AM 75 56 1.61 0 3.13
5/7/2018 10:00 AM 81 47 2.37 0 3.89
5/7/2018 11:00 AM 84 42 2.79 0 4.18
5/7/2018 12:00 PM 86 41 3.05 0 3.81
5/7/2018 1:00 PM 88 31 3.21 0 5.54
5/7/2018 2:00 PM 90 26 3.27 0 4.33
5/7/2018 3:00 PM 91 25 2.95 0 4.8
5/7/2018 4:00 PM 92 26 2.47 0 5.3
5/7/2018 5:00 PM 92 28 1.84 0 5.45
5/7/2018 6:00 PM 90 33 1.11 0 6.6
5/7/2018 7:00 PM 86 38 0.14 0 3.95
5/7/2018 8:00 PM 83 44 0.01 0 3.77
5/7/2018 9:00 PM 80 48 0 0 2.81
5/7/2018 10:00 PM 79 52 0 0 3.19
5/7/2018 11:00 PM 77 54 0 0 2.92
Data Summary 77 49 26.06 0.00 3.50